sensor_id;sensor_type;location;lat;lon;timestamp;P1;durP1;ratioP1;P2;durP2;ratioP2
80623;SDS011;69981;44.768;9.600;2023-05-10T00:01:42;10.95;;;5.00;;
80623;SDS011;69981;44.768;9.600;2023-05-10T00:04:08;7.75;;;4.97;;
80623;SDS011;69981;44.768;9.600;2023-05-10T00:06:33;7.03;;;4.72;;
80623;SDS011;69981;44.768;9.600;2023-05-10T00:08:59;12.98;;;5.07;;
80623;SDS011;69981;44.768;9.600;2023-05-10T00:11:24;8.25;;;4.90;;
80623;SDS011;69981;44.768;9.600;2023-05-10T00:13:50;26.40;;;5.60;;
80623;SDS011;69981;44.768;9.600;2023-05-10T00:16:15;10.10;;;4.90;;
80623;SDS011;69981;44.768;9.600;2023-05-10T00:18:41;8.73;;;5.10;;
80623;SDS011;69981;44.768;9.600;2023-05-10T00:21:07;9.48;;;5.00;;
80623;SDS011;69981;44.768;9.600;2023-05-10T00:23:32;7.95;;;4.88;;
80623;SDS011;69981;44.768;9.600;2023-05-10T00:25:58;7.45;;;4.55;;
80623;SDS011;69981;44.768;9.600;2023-05-10T00:28:23;8.65;;;4.72;;
80623;SDS011;69981;44.768;9.600;2023-05-10T00:30:49;12.95;;;5.18;;
80623;SDS011;69981;44.768;9.600;2023-05-10T00:33:14;8.25;;;4.63;;
80623;SDS011;69981;44.768;9.600;2023-05-10T00:35:40;9.68;;;5.07;;
80623;SDS011;69981;44.768;9.600;2023-05-10T00:38:06;8.27;;;5.20;;
80623;SDS011;69981;44.768;9.600;2023-05-10T00:40:31;8.50;;;5.57;;
80623;SDS011;69981;44.768;9.600;2023-05-10T00:43:02;8.88;;;5.35;;
80623;SDS011;69981;44.768;9.600;2023-05-10T00:45:28;16.55;;;9.30;;
80623;SDS011;69981;44.768;9.600;2023-05-10T00:47:56;16.67;;;10.00;;
80623;SDS011;69981;44.768;9.600;2023-05-10T00:50:22;11.40;;;6.97;;
80623;SDS011;69981;44.768;9.600;2023-05-10T00:52:48;18.10;;;11.07;;
80623;SDS011;69981;44.768;9.600;2023-05-10T00:55:14;15.95;;;10.38;;
80623;SDS011;69981;44.768;9.600;2023-05-10T00:57:40;24.63;;;11.13;;
80623;SDS011;69981;44.768;9.600;2023-05-10T01:00:06;19.33;;;12.25;;
80623;SDS011;69981;44.768;9.600;2023-05-10T01:02:33;18.08;;;10.90;;
80623;SDS011;69981;44.768;9.600;2023-05-10T01:05:01;15.05;;;9.80;;
80623;SDS011;69981;44.768;9.600;2023-05-10T01:07:28;15.73;;;9.75;;
80623;SDS011;69981;44.768;9.600;2023-05-10T01:09:54;15.95;;;9.93;;
80623;SDS011;69981;44.768;9.600;2023-05-10T01:12:20;12.60;;;7.70;;
80623;SDS011;69981;44.768;9.600;2023-05-10T01:14:47;14.75;;;8.85;;
80623;SDS011;69981;44.768;9.600;2023-05-10T01:17:13;12.90;;;8.25;;
80623;SDS011;69981;44.768;9.600;2023-05-10T01:19:40;15.07;;;8.60;;
80623;SDS011;69981;44.768;9.600;2023-05-10T01:22:13;12.13;;;7.70;;
80623;SDS011;69981;44.768;9.600;2023-05-10T01:38:46;11.63;;;5.78;;
80623;SDS011;69981;44.768;9.600;2023-05-10T01:46:45;10.10;;;5.03;;
80623;SDS011;69981;44.768;9.600;2023-05-10T01:49:19;10.55;;;6.88;;
80623;SDS011;69981;44.768;9.600;2023-05-10T01:51:59;10.48;;;5.18;;
80623;SDS011;69981;44.768;9.600;2023-05-10T01:54:29;9.65;;;6.28;;
80623;SDS011;69981;44.768;9.600;2023-05-10T01:56:58;11.05;;;6.60;;
80623;SDS011;69981;44.768;9.600;2023-05-10T01:59:29;10.90;;;5.80;;
80623;SDS011;69981;44.768;9.600;2023-05-10T02:02:01;9.07;;;4.78;;
80623;SDS011;69981;44.768;9.600;2023-05-10T02:04:29;10.77;;;5.28;;
80623;SDS011;69981;44.768;9.600;2023-05-10T02:06:57;9.00;;;5.18;;
80623;SDS011;69981;44.768;9.600;2023-05-10T02:09:23;8.02;;;4.25;;
80623;SDS011;69981;44.768;9.600;2023-05-10T02:11:53;8.25;;;3.92;;
80623;SDS011;69981;44.768;9.600;2023-05-10T02:14:20;7.95;;;4.60;;
80623;SDS011;69981;44.768;9.600;2023-05-10T02:16:47;10.55;;;4.63;;
80623;SDS011;69981;44.768;9.600;2023-05-10T02:19:15;7.45;;;4.55;;
80623;SDS011;69981;44.768;9.600;2023-05-10T02:21:43;7.03;;;3.75;;
80623;SDS011;69981;44.768;9.600;2023-05-10T02:24:11;6.15;;;3.35;;
80623;SDS011;69981;44.768;9.600;2023-05-10T02:26:37;7.75;;;4.03;;
80623;SDS011;69981;44.768;9.600;2023-05-10T02:29:04;7.95;;;4.28;;
80623;SDS011;69981;44.768;9.600;2023-05-10T02:31:32;6.63;;;3.30;;
80623;SDS011;69981;44.768;9.600;2023-05-10T02:33:59;8.35;;;3.80;;
80623;SDS011;69981;44.768;9.600;2023-05-10T02:36:26;6.78;;;3.40;;
80623;SDS011;69981;44.768;9.600;2023-05-10T02:38:52;6.18;;;3.58;;
80623;SDS011;69981;44.768;9.600;2023-05-10T02:41:22;6.63;;;3.45;;
80623;SDS011;69981;44.768;9.600;2023-05-10T02:43:51;5.10;;;2.65;;
80623;SDS011;69981;44.768;9.600;2023-05-10T02:46:21;5.75;;;2.88;;
80623;SDS011;69981;44.768;9.600;2023-05-10T02:48:46;5.70;;;3.17;;
80623;SDS011;69981;44.768;9.600;2023-05-10T02:51:12;8.77;;;4.22;;
80623;SDS011;69981;44.768;9.600;2023-05-10T02:53:43;6.32;;;3.45;;
80623;SDS011;69981;44.768;9.600;2023-05-10T02:58:42;8.52;;;4.32;;
80623;SDS011;69981;44.768;9.600;2023-05-10T03:01:08;6.35;;;3.20;;
80623;SDS011;69981;44.768;9.600;2023-05-10T03:03:34;5.82;;;3.28;;
80623;SDS011;69981;44.768;9.600;2023-05-10T03:05:59;5.97;;;2.95;;
80623;SDS011;69981;44.768;9.600;2023-05-10T03:08:25;5.65;;;2.80;;
80623;SDS011;69981;44.768;9.600;2023-05-10T03:13:35;6.72;;;1.98;;
80623;SDS011;69981;44.768;9.600;2023-05-10T03:16:12;6.30;;;3.35;;
80623;SDS011;69981;44.768;9.600;2023-05-10T03:18:44;5.63;;;3.00;;
80623;SDS011;69981;44.768;9.600;2023-05-10T03:21:16;5.72;;;2.72;;
80623;SDS011;69981;44.768;9.600;2023-05-10T03:23:54;6.80;;;2.97;;
80623;SDS011;69981;44.768;9.600;2023-05-10T03:26:43;6.30;;;2.67;;
80623;SDS011;69981;44.768;9.600;2023-05-10T03:29:14;5.00;;;2.83;;
80623;SDS011;69981;44.768;9.600;2023-05-10T03:31:41;6.38;;;3.50;;
80623;SDS011;69981;44.768;9.600;2023-05-10T03:34:07;6.68;;;2.78;;
80623;SDS011;69981;44.768;9.600;2023-05-10T03:36:32;4.75;;;2.53;;
80623;SDS011;69981;44.768;9.600;2023-05-10T03:38:58;6.22;;;2.47;;
80623;SDS011;69981;44.768;9.600;2023-05-10T03:41:24;4.63;;;2.45;;
80623;SDS011;69981;44.768;9.600;2023-05-10T03:43:50;5.15;;;2.60;;
80623;SDS011;69981;44.768;9.600;2023-05-10T03:46:16;4.18;;;2.30;;
80623;SDS011;69981;44.768;9.600;2023-05-10T03:48:42;4.65;;;2.55;;
80623;SDS011;69981;44.768;9.600;2023-05-10T03:51:08;4.55;;;2.58;;
80623;SDS011;69981;44.768;9.600;2023-05-10T03:53:33;5.00;;;2.60;;
80623;SDS011;69981;44.768;9.600;2023-05-10T03:55:59;4.75;;;2.42;;
80623;SDS011;69981;44.768;9.600;2023-05-10T03:58:25;5.63;;;2.47;;
80623;SDS011;69981;44.768;9.600;2023-05-10T04:00:50;4.15;;;2.10;;
80623;SDS011;69981;44.768;9.600;2023-05-10T04:03:16;3.20;;;1.60;;
80623;SDS011;69981;44.768;9.600;2023-05-10T04:05:42;3.63;;;1.40;;
80623;SDS011;69981;44.768;9.600;2023-05-10T04:08:08;3.25;;;1.50;;
80623;SDS011;69981;44.768;9.600;2023-05-10T04:10:34;3.95;;;1.60;;
80623;SDS011;69981;44.768;9.600;2023-05-10T04:12:59;3.78;;;1.30;;
80623;SDS011;69981;44.768;9.600;2023-05-10T04:15:25;3.10;;;1.23;;
80623;SDS011;69981;44.768;9.600;2023-05-10T04:17:50;2.63;;;1.30;;
80623;SDS011;69981;44.768;9.600;2023-05-10T04:20:16;2.50;;;1.00;;
80623;SDS011;69981;44.768;9.600;2023-05-10T04:22:41;2.95;;;1.13;;
80623;SDS011;69981;44.768;9.600;2023-05-10T04:25:07;3.13;;;1.30;;
80623;SDS011;69981;44.768;9.600;2023-05-10T04:27:33;3.58;;;1.17;;
80623;SDS011;69981;44.768;9.600;2023-05-10T04:29:59;4.80;;;1.30;;
80623;SDS011;69981;44.768;9.600;2023-05-10T04:32:24;2.45;;;1.13;;
80623;SDS011;69981;44.768;9.600;2023-05-10T04:34:50;2.30;;;0.90;;
80623;SDS011;69981;44.768;9.600;2023-05-10T04:37:17;2.40;;;0.90;;
80623;SDS011;69981;44.768;9.600;2023-05-10T04:39:43;2.58;;;0.98;;
80623;SDS011;69981;44.768;9.600;2023-05-10T04:42:08;3.08;;;1.20;;
80623;SDS011;69981;44.768;9.600;2023-05-10T04:44:34;2.58;;;1.15;;
80623;SDS011;69981;44.768;9.600;2023-05-10T04:47:00;2.50;;;1.05;;
80623;SDS011;69981;44.768;9.600;2023-05-10T04:49:27;2.22;;;1.00;;
80623;SDS011;69981;44.768;9.600;2023-05-10T04:51:53;2.83;;;0.98;;
80623;SDS011;69981;44.768;9.600;2023-05-10T04:54:19;2.70;;;0.98;;
80623;SDS011;69981;44.768;9.600;2023-05-10T04:56:44;2.25;;;0.85;;
80623;SDS011;69981;44.768;9.600;2023-05-10T04:59:10;2.42;;;0.80;;
80623;SDS011;69981;44.768;9.600;2023-05-10T05:01:35;2.22;;;1.00;;
80623;SDS011;69981;44.768;9.600;2023-05-10T05:04:01;2.25;;;1.17;;
80623;SDS011;69981;44.768;9.600;2023-05-10T05:06:27;1.50;;;0.60;;
80623;SDS011;69981;44.768;9.600;2023-05-10T05:08:52;2.15;;;0.90;;
80623;SDS011;69981;44.768;9.600;2023-05-10T05:11:18;2.00;;;0.93;;
80623;SDS011;69981;44.768;9.600;2023-05-10T05:13:43;2.80;;;0.90;;
80623;SDS011;69981;44.768;9.600;2023-05-10T05:16:09;2.03;;;0.90;;
80623;SDS011;69981;44.768;9.600;2023-05-10T05:18:35;2.60;;;0.98;;
80623;SDS011;69981;44.768;9.600;2023-05-10T05:21:02;2.42;;;0.85;;
80623;SDS011;69981;44.768;9.600;2023-05-10T05:23:27;2.47;;;1.00;;
80623;SDS011;69981;44.768;9.600;2023-05-10T05:25:53;2.03;;;0.80;;
80623;SDS011;69981;44.768;9.600;2023-05-10T05:28:19;2.05;;;0.80;;
80623;SDS011;69981;44.768;9.600;2023-05-10T05:30:46;1.63;;;0.60;;
80623;SDS011;69981;44.768;9.600;2023-05-10T05:33:15;1.95;;;0.85;;
80623;SDS011;69981;44.768;9.600;2023-05-10T05:35:40;2.10;;;0.90;;
80623;SDS011;69981;44.768;9.600;2023-05-10T05:38:08;2.10;;;0.90;;
80623;SDS011;69981;44.768;9.600;2023-05-10T05:40:33;3.22;;;0.90;;
80623;SDS011;69981;44.768;9.600;2023-05-10T05:42:59;1.83;;;0.70;;
80623;SDS011;69981;44.768;9.600;2023-05-10T05:45:24;1.85;;;0.90;;
80623;SDS011;69981;44.768;9.600;2023-05-10T05:47:50;1.65;;;0.70;;
80623;SDS011;69981;44.768;9.600;2023-05-10T05:50:16;1.23;;;0.47;;
80623;SDS011;69981;44.768;9.600;2023-05-10T05:52:42;1.52;;;0.70;;
80623;SDS011;69981;44.768;9.600;2023-05-10T05:55:07;3.75;;;0.60;;
80623;SDS011;69981;44.768;9.600;2023-05-10T05:57:33;1.92;;;0.85;;
80623;SDS011;69981;44.768;9.600;2023-05-10T05:59:58;0.82;;;0.40;;
80623;SDS011;69981;44.768;9.600;2023-05-10T06:02:24;1.65;;;0.60;;
80623;SDS011;69981;44.768;9.600;2023-05-10T06:04:50;1.15;;;0.55;;
80623;SDS011;69981;44.768;9.600;2023-05-10T06:07:15;2.22;;;0.80;;
80623;SDS011;69981;44.768;9.600;2023-05-10T06:09:41;1.65;;;0.70;;
80623;SDS011;69981;44.768;9.600;2023-05-10T06:12:07;1.95;;;0.80;;
80623;SDS011;69981;44.768;9.600;2023-05-10T06:14:32;1.35;;;0.75;;
80623;SDS011;69981;44.768;9.600;2023-05-10T06:16:58;1.33;;;0.57;;
80623;SDS011;69981;44.768;9.600;2023-05-10T06:19:24;2.10;;;0.98;;
80623;SDS011;69981;44.768;9.600;2023-05-10T06:21:51;1.00;;;0.55;;
80623;SDS011;69981;44.768;9.600;2023-05-10T06:24:17;2.15;;;0.85;;
80623;SDS011;69981;44.768;9.600;2023-05-10T06:26:42;1.73;;;0.60;;
80623;SDS011;69981;44.768;9.600;2023-05-10T06:29:08;1.83;;;0.70;;
80623;SDS011;69981;44.768;9.600;2023-05-10T06:31:33;3.08;;;0.68;;
80623;SDS011;69981;44.768;9.600;2023-05-10T06:33:59;1.75;;;0.70;;
80623;SDS011;69981;44.768;9.600;2023-05-10T06:36:25;1.65;;;0.60;;
80623;SDS011;69981;44.768;9.600;2023-05-10T06:38:51;1.83;;;0.70;;
80623;SDS011;69981;44.768;9.600;2023-05-10T06:41:17;6.82;;;1.33;;
80623;SDS011;69981;44.768;9.600;2023-05-10T06:43:42;1.38;;;0.70;;
80623;SDS011;69981;44.768;9.600;2023-05-10T06:46:08;2.10;;;0.63;;
80623;SDS011;69981;44.768;9.600;2023-05-10T06:48:34;2.58;;;0.80;;
80623;SDS011;69981;44.768;9.600;2023-05-10T06:50:59;2.65;;;1.05;;
80623;SDS011;69981;44.768;9.600;2023-05-10T06:53:25;2.67;;;1.10;;
80623;SDS011;69981;44.768;9.600;2023-05-10T06:55:51;3.13;;;1.20;;
80623;SDS011;69981;44.768;9.600;2023-05-10T06:58:17;2.55;;;1.35;;
80623;SDS011;69981;44.768;9.600;2023-05-10T07:00:42;2.95;;;1.13;;
80623;SDS011;69981;44.768;9.600;2023-05-10T07:16:30;2.53;;;1.33;;
80623;SDS011;69981;44.768;9.600;2023-05-10T07:18:56;2.53;;;1.10;;
80623;SDS011;69981;44.768;9.600;2023-05-10T07:21:21;2.38;;;1.23;;
80623;SDS011;69981;44.768;9.600;2023-05-10T07:23:49;3.95;;;2.20;;
80623;SDS011;69981;44.768;9.600;2023-05-10T07:26:15;2.78;;;1.35;;
80623;SDS011;69981;44.768;9.600;2023-05-10T07:28:41;3.42;;;1.92;;
80623;SDS011;69981;44.768;9.600;2023-05-10T07:31:07;4.88;;;2.40;;
80623;SDS011;69981;44.768;9.600;2023-05-10T07:33:33;6.68;;;3.78;;
80623;SDS011;69981;44.768;9.600;2023-05-10T07:35:58;5.82;;;2.15;;
80623;SDS011;69981;44.768;9.600;2023-05-10T07:38:24;5.75;;;2.20;;
80623;SDS011;69981;44.768;9.600;2023-05-10T07:40:49;4.10;;;2.58;;
80623;SDS011;69981;44.768;9.600;2023-05-10T07:43:15;4.82;;;2.35;;
80623;SDS011;69981;44.768;9.600;2023-05-10T07:45:42;6.30;;;3.15;;
80623;SDS011;69981;44.768;9.600;2023-05-10T07:48:08;3.70;;;2.15;;
80623;SDS011;69981;44.768;9.600;2023-05-10T07:50:33;5.13;;;2.10;;
80623;SDS011;69981;44.768;9.600;2023-05-10T07:52:59;2.60;;;1.30;;
80623;SDS011;69981;44.768;9.600;2023-05-10T07:55:24;5.07;;;2.92;;
80623;SDS011;69981;44.768;9.600;2023-05-10T07:57:50;3.50;;;1.70;;
80623;SDS011;69981;44.768;9.600;2023-05-10T08:00:19;2.63;;;1.05;;
80623;SDS011;69981;44.768;9.600;2023-05-10T08:02:45;4.90;;;1.63;;
80623;SDS011;69981;44.768;9.600;2023-05-10T08:05:11;3.47;;;1.75;;
80623;SDS011;69981;44.768;9.600;2023-05-10T08:07:37;6.05;;;3.00;;
80623;SDS011;69981;44.768;9.600;2023-05-10T08:10:02;7.05;;;6.28;;
80623;SDS011;69981;44.768;9.600;2023-05-10T08:12:28;3.30;;;1.42;;
80623;SDS011;69981;44.768;9.600;2023-05-10T08:14:54;2.80;;;1.30;;
80623;SDS011;69981;44.768;9.600;2023-05-10T08:17:19;4.35;;;2.40;;
80623;SDS011;69981;44.768;9.600;2023-05-10T08:19:45;4.15;;;2.35;;
80623;SDS011;69981;44.768;9.600;2023-05-10T08:22:10;3.30;;;1.65;;
80623;SDS011;69981;44.768;9.600;2023-05-10T08:24:36;2.42;;;1.10;;
80623;SDS011;69981;44.768;9.600;2023-05-10T08:27:07;3.13;;;1.38;;
80623;SDS011;69981;44.768;9.600;2023-05-10T08:29:33;3.58;;;1.67;;
80623;SDS011;69981;44.768;9.600;2023-05-10T08:31:59;2.60;;;1.00;;
80623;SDS011;69981;44.768;9.600;2023-05-10T08:34:26;3.55;;;1.20;;
80623;SDS011;69981;44.768;9.600;2023-05-10T08:36:52;1.27;;;0.60;;
80623;SDS011;69981;44.768;9.600;2023-05-10T08:39:18;2.83;;;1.15;;
80623;SDS011;69981;44.768;9.600;2023-05-10T08:41:43;1.90;;;1.10;;
80623;SDS011;69981;44.768;9.600;2023-05-10T08:44:10;2.40;;;1.10;;
80623;SDS011;69981;44.768;9.600;2023-05-10T08:46:35;1.33;;;0.73;;
80623;SDS011;69981;44.768;9.600;2023-05-10T08:49:06;2.60;;;1.15;;
80623;SDS011;69981;44.768;9.600;2023-05-10T08:51:35;4.40;;;1.38;;
80623;SDS011;69981;44.768;9.600;2023-05-10T08:54:05;2.80;;;1.30;;
80623;SDS011;69981;44.768;9.600;2023-05-10T08:56:31;2.60;;;1.17;;
80623;SDS011;69981;44.768;9.600;2023-05-10T08:58:57;3.58;;;1.50;;
80623;SDS011;69981;44.768;9.600;2023-05-10T09:01:22;2.35;;;0.95;;
80623;SDS011;69981;44.768;9.600;2023-05-10T09:03:49;2.15;;;0.93;;
80623;SDS011;69981;44.768;9.600;2023-05-10T09:06:16;2.33;;;1.10;;
80623;SDS011;69981;44.768;9.600;2023-05-10T09:08:44;2.38;;;1.00;;
80623;SDS011;69981;44.768;9.600;2023-05-10T09:11:11;2.00;;;1.02;;
80623;SDS011;69981;44.768;9.600;2023-05-10T09:13:37;3.40;;;1.15;;
80623;SDS011;69981;44.768;9.600;2023-05-10T09:16:03;2.67;;;1.23;;
80623;SDS011;69981;44.768;9.600;2023-05-10T09:18:30;3.40;;;1.13;;
80623;SDS011;69981;44.768;9.600;2023-05-10T09:20:56;3.13;;;1.30;;
80623;SDS011;69981;44.768;9.600;2023-05-10T09:23:21;4.10;;;1.08;;
80623;SDS011;69981;44.768;9.600;2023-05-10T09:25:47;2.17;;;1.00;;
80623;SDS011;69981;44.768;9.600;2023-05-10T09:28:12;3.15;;;1.17;;
80623;SDS011;69981;44.768;9.600;2023-05-10T09:30:38;2.40;;;1.08;;
80623;SDS011;69981;44.768;9.600;2023-05-10T09:33:04;1.60;;;0.60;;
80623;SDS011;69981;44.768;9.600;2023-05-10T09:35:30;1.17;;;0.57;;
80623;SDS011;69981;44.768;9.600;2023-05-10T09:38:00;1.35;;;0.60;;
80623;SDS011;69981;44.768;9.600;2023-05-10T09:40:28;1.38;;;0.68;;
80623;SDS011;69981;44.768;9.600;2023-05-10T09:42:58;1.58;;;0.70;;
80623;SDS011;69981;44.768;9.600;2023-05-10T09:45:34;1.70;;;0.80;;
80623;SDS011;69981;44.768;9.600;2023-05-10T09:48:01;2.13;;;0.88;;
80623;SDS011;69981;44.768;9.600;2023-05-10T09:50:28;2.47;;;1.45;;
80623;SDS011;69981;44.768;9.600;2023-05-10T09:53:01;1.48;;;0.80;;
80623;SDS011;69981;44.768;9.600;2023-05-10T09:55:38;2.58;;;1.10;;
80623;SDS011;69981;44.768;9.600;2023-05-10T09:58:05;2.00;;;0.80;;
80623;SDS011;69981;44.768;9.600;2023-05-10T10:00:39;3.35;;;1.23;;
80623;SDS011;69981;44.768;9.600;2023-05-10T10:03:06;1.50;;;0.60;;
80623;SDS011;69981;44.768;9.600;2023-05-10T10:05:39;2.08;;;0.70;;
80623;SDS011;69981;44.768;9.600;2023-05-10T10:08:05;1.55;;;0.70;;
80623;SDS011;69981;44.768;9.600;2023-05-10T10:10:32;2.15;;;0.60;;
80623;SDS011;69981;44.768;9.600;2023-05-10T10:12:58;0.80;;;0.40;;
80623;SDS011;69981;44.768;9.600;2023-05-10T10:15:25;1.25;;;0.60;;
80623;SDS011;69981;44.768;9.600;2023-05-10T10:17:51;1.20;;;0.50;;
80623;SDS011;69981;44.768;9.600;2023-05-10T10:20:18;1.58;;;0.57;;
80623;SDS011;69981;44.768;9.600;2023-05-10T10:22:46;1.80;;;0.68;;
80623;SDS011;69981;44.768;9.600;2023-05-10T10:25:14;1.05;;;0.40;;
80623;SDS011;69981;44.768;9.600;2023-05-10T10:27:48;0.43;;;0.22;;
80623;SDS011;69981;44.768;9.600;2023-05-10T10:30:29;1.08;;;0.40;;
80623;SDS011;69981;44.768;9.600;2023-05-10T10:37:57;0.88;;;0.38;;
80623;SDS011;69981;44.768;9.600;2023-05-10T10:42:52;0.20;;;0.20;;
80623;SDS011;69981;44.768;9.600;2023-05-10T10:45:19;1.52;;;0.57;;
80623;SDS011;69981;44.768;9.600;2023-05-10T10:47:45;1.27;;;0.68;;
80623;SDS011;69981;44.768;9.600;2023-05-10T10:50:11;0.95;;;0.40;;
80623;SDS011;69981;44.768;9.600;2023-05-10T10:52:44;2.08;;;0.98;;
80623;SDS011;69981;44.768;9.600;2023-05-10T10:55:11;1.38;;;0.65;;
80623;SDS011;69981;44.768;9.600;2023-05-10T10:57:57;1.25;;;0.43;;
80623;SDS011;69981;44.768;9.600;2023-05-10T11:02:57;0.60;;;0.40;;
80623;SDS011;69981;44.768;9.600;2023-05-10T11:08:12;0.90;;;0.35;;
80623;SDS011;69981;44.768;9.600;2023-05-10T11:13:33;1.20;;;0.68;;
80623;SDS011;69981;44.768;9.600;2023-05-10T11:16:14;0.65;;;0.30;;
80623;SDS011;69981;44.768;9.600;2023-05-10T11:21:32;0.88;;;0.50;;
80623;SDS011;69981;44.768;9.600;2023-05-10T11:23:59;1.17;;;0.45;;
80623;SDS011;69981;44.768;9.600;2023-05-10T11:26:30;0.70;;;0.50;;
80623;SDS011;69981;44.768;9.600;2023-05-10T11:28:57;0.95;;;0.40;;
80623;SDS011;69981;44.768;9.600;2023-05-10T11:31:25;1.55;;;0.50;;
80623;SDS011;69981;44.768;9.600;2023-05-10T11:33:52;1.05;;;0.40;;
80623;SDS011;69981;44.768;9.600;2023-05-10T11:36:20;0.50;;;0.22;;
80623;SDS011;69981;44.768;9.600;2023-05-10T11:38:50;0.85;;;0.40;;
80623;SDS011;69981;44.768;9.600;2023-05-10T11:41:17;1.98;;;0.60;;
80623;SDS011;69981;44.768;9.600;2023-05-10T11:43:45;0.35;;;0.28;;
80623;SDS011;69981;44.768;9.600;2023-05-10T11:46:12;0.43;;;0.20;;
80623;SDS011;69981;44.768;9.600;2023-05-10T11:48:39;0.55;;;0.40;;
80623;SDS011;69981;44.768;9.600;2023-05-10T11:51:06;0.45;;;0.32;;
80623;SDS011;69981;44.768;9.600;2023-05-10T11:53:32;0.28;;;0.20;;
80623;SDS011;69981;44.768;9.600;2023-05-10T11:56:05;1.85;;;0.20;;
80623;SDS011;69981;44.768;9.600;2023-05-10T11:58:32;1.17;;;0.40;;
80623;SDS011;69981;44.768;9.600;2023-05-10T12:00:59;0.40;;;0.30;;
80623;SDS011;69981;44.768;9.600;2023-05-10T12:03:25;1.10;;;0.47;;
80623;SDS011;69981;44.768;9.600;2023-05-10T12:05:54;1.08;;;0.50;;
80623;SDS011;69981;44.768;9.600;2023-05-10T12:08:22;2.78;;;0.77;;
80623;SDS011;69981;44.768;9.600;2023-05-10T12:10:49;1.80;;;0.60;;
80623;SDS011;69981;44.768;9.600;2023-05-10T12:13:15;1.15;;;0.50;;
80623;SDS011;69981;44.768;9.600;2023-05-10T12:15:41;1.30;;;0.60;;
80623;SDS011;69981;44.768;9.600;2023-05-10T12:18:10;1.52;;;0.70;;
80623;SDS011;69981;44.768;9.600;2023-05-10T12:20:37;2.30;;;1.10;;
80623;SDS011;69981;44.768;9.600;2023-05-10T12:23:03;2.22;;;0.90;;
80623;SDS011;69981;44.768;9.600;2023-05-10T12:25:33;2.20;;;1.00;;
80623;SDS011;69981;44.768;9.600;2023-05-10T12:28:02;2.50;;;1.17;;
80623;SDS011;69981;44.768;9.600;2023-05-10T12:30:30;2.08;;;0.90;;
80623;SDS011;69981;44.768;9.600;2023-05-10T12:33:01;1.85;;;0.90;;
80623;SDS011;69981;44.768;9.600;2023-05-10T12:35:47;2.13;;;0.85;;
80623;SDS011;69981;44.768;9.600;2023-05-10T12:40:59;2.60;;;1.23;;
80623;SDS011;69981;44.768;9.600;2023-05-10T12:43:26;2.28;;;0.90;;
80623;SDS011;69981;44.768;9.600;2023-05-10T12:45:52;3.08;;;1.27;;
80623;SDS011;69981;44.768;9.600;2023-05-10T12:48:18;2.47;;;0.93;;
80623;SDS011;69981;44.768;9.600;2023-05-10T12:50:43;2.10;;;0.90;;
80623;SDS011;69981;44.768;9.600;2023-05-10T12:53:09;1.83;;;0.80;;
80623;SDS011;69981;44.768;9.600;2023-05-10T12:55:34;2.40;;;1.00;;
80623;SDS011;69981;44.768;9.600;2023-05-10T12:58:00;1.95;;;0.90;;
80623;SDS011;69981;44.768;9.600;2023-05-10T13:00:25;1.70;;;0.75;;
80623;SDS011;69981;44.768;9.600;2023-05-10T13:02:51;2.20;;;1.00;;
80623;SDS011;69981;44.768;9.600;2023-05-10T13:05:17;2.28;;;0.90;;
80623;SDS011;69981;44.768;9.600;2023-05-10T13:07:42;1.83;;;0.90;;
80623;SDS011;69981;44.768;9.600;2023-05-10T13:10:09;2.78;;;1.10;;
80623;SDS011;69981;44.768;9.600;2023-05-10T13:12:35;1.95;;;0.60;;
80623;SDS011;69981;44.768;9.600;2023-05-10T13:15:01;2.80;;;1.15;;
80623;SDS011;69981;44.768;9.600;2023-05-10T13:17:27;2.67;;;1.27;;
80623;SDS011;69981;44.768;9.600;2023-05-10T13:19:53;2.20;;;1.20;;
80623;SDS011;69981;44.768;9.600;2023-05-10T13:22:18;3.25;;;1.52;;
80623;SDS011;69981;44.768;9.600;2023-05-10T13:24:44;3.75;;;1.60;;
80623;SDS011;69981;44.768;9.600;2023-05-10T13:27:09;2.55;;;1.25;;
80623;SDS011;69981;44.768;9.600;2023-05-10T13:29:35;2.95;;;1.33;;
80623;SDS011;69981;44.768;9.600;2023-05-10T13:32:00;3.40;;;1.52;;
80623;SDS011;69981;44.768;9.600;2023-05-10T13:34:26;2.10;;;0.85;;
80623;SDS011;69981;44.768;9.600;2023-05-10T13:36:52;3.58;;;1.30;;
80623;SDS011;69981;44.768;9.600;2023-05-10T13:39:19;4.13;;;1.38;;
80623;SDS011;69981;44.768;9.600;2023-05-10T13:41:45;3.25;;;1.40;;
80623;SDS011;69981;44.768;9.600;2023-05-10T13:44:12;3.13;;;1.65;;
80623;SDS011;69981;44.768;9.600;2023-05-10T13:46:39;2.30;;;0.95;;
80623;SDS011;69981;44.768;9.600;2023-05-10T13:49:04;3.00;;;1.50;;
80623;SDS011;69981;44.768;9.600;2023-05-10T13:51:30;4.22;;;1.50;;
80623;SDS011;69981;44.768;9.600;2023-05-10T13:53:57;3.58;;;1.52;;
80623;SDS011;69981;44.768;9.600;2023-05-10T13:56:23;3.35;;;1.45;;
80623;SDS011;69981;44.768;9.600;2023-05-10T13:58:48;4.50;;;1.35;;
80623;SDS011;69981;44.768;9.600;2023-05-10T14:01:14;4.53;;;2.10;;
80623;SDS011;69981;44.768;9.600;2023-05-10T14:03:40;3.75;;;2.00;;
80623;SDS011;69981;44.768;9.600;2023-05-10T14:06:05;3.00;;;1.40;;
80623;SDS011;69981;44.768;9.600;2023-05-10T14:08:32;3.70;;;1.60;;
80623;SDS011;69981;44.768;9.600;2023-05-10T14:10:58;4.55;;;1.90;;
80623;SDS011;69981;44.768;9.600;2023-05-10T14:13:23;6.22;;;1.55;;
80623;SDS011;69981;44.768;9.600;2023-05-10T14:15:50;3.53;;;1.35;;
80623;SDS011;69981;44.768;9.600;2023-05-10T14:18:15;2.75;;;1.15;;
80623;SDS011;69981;44.768;9.600;2023-05-10T14:20:41;2.60;;;0.90;;
80623;SDS011;69981;44.768;9.600;2023-05-10T14:23:07;3.17;;;1.40;;
80623;SDS011;69981;44.768;9.600;2023-05-10T14:25:32;2.67;;;1.23;;
80623;SDS011;69981;44.768;9.600;2023-05-10T14:27:58;4.40;;;1.83;;
80623;SDS011;69981;44.768;9.600;2023-05-10T14:30:23;3.50;;;1.77;;
80623;SDS011;69981;44.768;9.600;2023-05-10T14:32:49;3.33;;;1.80;;
80623;SDS011;69981;44.768;9.600;2023-05-10T14:35:15;3.45;;;1.73;;
80623;SDS011;69981;44.768;9.600;2023-05-10T14:37:40;4.13;;;1.60;;
80623;SDS011;69981;44.768;9.600;2023-05-10T14:40:06;3.75;;;1.90;;
80623;SDS011;69981;44.768;9.600;2023-05-10T14:42:32;3.72;;;2.05;;
80623;SDS011;69981;44.768;9.600;2023-05-10T14:44:57;3.40;;;1.80;;
80623;SDS011;69981;44.768;9.600;2023-05-10T14:47:23;3.33;;;1.65;;
80623;SDS011;69981;44.768;9.600;2023-05-10T14:49:48;4.70;;;1.88;;
80623;SDS011;69981;44.768;9.600;2023-05-10T14:52:14;3.63;;;1.95;;
80623;SDS011;69981;44.768;9.600;2023-05-10T14:54:40;2.78;;;1.42;;
80623;SDS011;69981;44.768;9.600;2023-05-10T14:57:06;3.67;;;1.88;;
80623;SDS011;69981;44.768;9.600;2023-05-10T14:59:32;3.92;;;1.98;;
80623;SDS011;69981;44.768;9.600;2023-05-10T15:01:57;4.97;;;2.05;;
80623;SDS011;69981;44.768;9.600;2023-05-10T15:04:23;3.70;;;1.77;;
80623;SDS011;69981;44.768;9.600;2023-05-10T15:06:49;3.97;;;2.00;;
80623;SDS011;69981;44.768;9.600;2023-05-10T15:09:14;3.50;;;1.63;;
80623;SDS011;69981;44.768;9.600;2023-05-10T15:11:41;3.35;;;1.63;;
80623;SDS011;69981;44.768;9.600;2023-05-10T15:14:07;3.65;;;2.00;;
80623;SDS011;69981;44.768;9.600;2023-05-10T15:16:32;3.83;;;2.00;;
80623;SDS011;69981;44.768;9.600;2023-05-10T15:18:58;4.25;;;1.98;;
80623;SDS011;69981;44.768;9.600;2023-05-10T15:21:23;3.75;;;2.20;;
80623;SDS011;69981;44.768;9.600;2023-05-10T15:23:49;3.97;;;2.22;;
80623;SDS011;69981;44.768;9.600;2023-05-10T15:26:15;4.47;;;2.25;;
80623;SDS011;69981;44.768;9.600;2023-05-10T15:28:40;3.90;;;1.80;;
80623;SDS011;69981;44.768;9.600;2023-05-10T15:31:06;3.85;;;1.70;;
80623;SDS011;69981;44.768;9.600;2023-05-10T15:33:31;4.53;;;2.00;;
80623;SDS011;69981;44.768;9.600;2023-05-10T15:35:57;3.60;;;1.60;;
80623;SDS011;69981;44.768;9.600;2023-05-10T15:38:23;2.88;;;1.48;;
80623;SDS011;69981;44.768;9.600;2023-05-10T15:40:48;4.75;;;1.95;;
80623;SDS011;69981;44.768;9.600;2023-05-10T15:43:14;3.28;;;1.77;;